This is the latest recevied weather packets stored in our database for station/object EA4BHK-10. If no packets are shown the sender has not sent any weather packets the latest 10 day(s).
| Time | Temp. | Humidity | Pressure | Rain* | Wind** | Luminosity | Snow |
|---|---|---|---|---|---|---|---|
| 1777976668 | 16.11° C | 41% | 1014 hPa | - | - | - | - |
| 1777975768 | 13.33° C | 49% | 1015 hPa | - | - | - | - |
| 1777974868 | 13.33° C | 50% | 1014.9 hPa | - | - | - | - |
| 1777973969 | 13.89° C | 54% | 1014.6 hPa | - | - | - | - |
| 1777973075 | 15° C | 51% | 1014.2 hPa | - | - | - | - |
| 1777972168 | 13.89° C | 55% | 1014.6 hPa | - | - | - | - |
| 1777971270 | 13.89° C | 53% | 1014.8 hPa | - | - | - | - |
| 1777970375 | 13.33° C | 59% | 1015 hPa | - | - | - | - |
| 1777969530 | 12.22° C | 64% | 1015.4 hPa | - | - | - | - |
| 1777969475 | 12.22° C | 64% | 1015.4 hPa | - | - | - | - |
| 1777968568 | 10.56° C | 71% | 1016.3 hPa | - | - | - | - |
| 1777967668 | 10.56° C | 73% | 1016.4 hPa | - | - | - | - |
| 1777966768 | 10° C | 74% | 1016.5 hPa | - | - | - | - |
| 1777965868 | 9.44° C | 77% | 1016.6 hPa | - | - | - | - |
| 1777964975 | 8.89° C | 79% | 1016.8 hPa | - | - | - | - |
| 1777964068 | 8.33° C | 81% | 1017.1 hPa | - | - | - | - |
| 1777963215 | 8.33° C | 83% | 1017.2 hPa | - | - | - | - |
| 1777963175 | 8.33° C | 83% | 1017.2 hPa | - | - | - | - |
| 1777962275 | 7.78° C | 83% | 1017.1 hPa | - | - | - | - |
| 1777961368 | 7.78° C | 85% | 1017.3 hPa | - | - | - | - |
| 1777960863 | 7.22° C | 85% | 1017.5 hPa | - | - | - | - |
| 1777960475 | 7.22° C | 85% | 1017.5 hPa | - | - | - | - |
| 1777959074 | 6.67° C | 86% | 1017.6 hPa | - | - | - | - |
| 1777958167 | 6.67° C | 85% | 1017.7 hPa | - | - | - | - |
| 1777957274 | 6.67° C | 85% | 1017.6 hPa | - | - | - | - |
* Rain since midnight (hover to see other rain measurements)
** Current wind speed in m/s (hover to see current wind gust speed)